Weather at Texas Health Presbyterian Hospital Flower Mound Heliport

Public forecast

Using degrees Fahrenheit for public forecast. Weather courtesy of forecast.io.

Closest aviation weather report (METAR) to Texas Health Presbyterian Hospital Flower Mound Heliport

Closest report is Dallas Fort Worth International Airport, 9.1 nm (16.8 km) S.

2023/03/20 18:53 (retrieved 14 minutes ago)

KDFW 201853Z 18018G29KT 10SM OVC060 12/M01 A3021 RMK AO2 PK WND 19029/1846 SLP228 T01171006

Closest aviation forecast (TAF) to Texas Health Presbyterian Hospital Flower Mound Heliport

Closest forecast is Dallas Fort Worth International Airport, 9.1 nm (16.8 km) S.

2023/03/20 18:27 (retrieved 40 minutes ago)

TAF KDFW 201724Z 2018/2124 18017KT P6SM OVC050 FM210500 17018G28KT P6SM OVC025 FM210800 17020G30KT P6SM OVC018 FM211500 17018G28KT P6SM OVC009